sensor_id;sensor_type;location;lat;lon;timestamp;pressure;altitude;pressure_sealevel;temperature;humidity
78117;BME280;69042;59.120;37.904;2024-03-08T00:02:38;100023.84;;;-0.40;73.13
78117;BME280;69042;59.120;37.904;2024-03-08T00:05:05;100030.66;;;-0.39;72.45
78117;BME280;69042;59.120;37.904;2024-03-08T00:07:32;100024.69;;;-0.35;72.16
78117;BME280;69042;59.120;37.904;2024-03-08T00:09:58;100022.09;;;-0.37;72.13
78117;BME280;69042;59.120;37.904;2024-03-08T00:12:24;100018.69;;;-0.30;72.40
78117;BME280;69042;59.120;37.904;2024-03-08T00:14:53;100017.81;;;-0.32;72.18
78117;BME280;69042;59.120;37.904;2024-03-08T00:17:21;100013.56;;;-0.28;72.16
78117;BME280;69042;59.120;37.904;2024-03-08T00:19:51;100013.56;;;-0.31;72.51
78117;BME280;69042;59.120;37.904;2024-03-08T00:22:17;100008.41;;;-0.34;72.42
78117;BME280;69042;59.120;37.904;2024-03-08T00:24:44;100001.56;;;-0.32;71.93
78117;BME280;69042;59.120;37.904;2024-03-08T00:27:13;100004.16;;;-0.29;72.33
78117;BME280;69042;59.120;37.904;2024-03-08T00:29:39;99998.16;;;-0.30;72.87
78117;BME280;69042;59.120;37.904;2024-03-08T00:32:06;99985.31;;;-0.25;72.10
78117;BME280;69042;59.120;37.904;2024-03-08T00:34:36;99989.59;;;-0.21;72.21
78117;BME280;69042;59.120;37.904;2024-03-08T00:37:03;99993.88;;;-0.20;72.25
78117;BME280;69042;59.120;37.904;2024-03-08T00:39:30;99986.16;;;-0.23;73.57
78117;BME280;69042;59.120;37.904;2024-03-08T00:41:56;99995.56;;;-0.16;72.72
78117;BME280;69042;59.120;37.904;2024-03-08T00:44:22;99978.44;;;-0.03;72.14
78117;BME280;69042;59.120;37.904;2024-03-08T00:46:50;99976.75;;;-0.01;72.21
78117;BME280;69042;59.120;37.904;2024-03-08T00:49:17;99990.44;;;0.01;72.10
78117;BME280;69042;59.120;37.904;2024-03-08T00:51:43;99979.31;;;-0.01;72.75
78117;BME280;69042;59.120;37.904;2024-03-08T00:54:09;99980.16;;;0.10;71.77
78117;BME280;69042;59.120;37.904;2024-03-08T00:56:35;99983.56;;;0.12;71.63
78117;BME280;69042;59.120;37.904;2024-03-08T00:59:06;99988.72;;;0.05;72.17
78117;BME280;69042;59.120;37.904;2024-03-08T01:01:33;99978.44;;;0.08;72.06
78117;BME280;69042;59.120;37.904;2024-03-08T01:03:59;99980.13;;;0.09;72.31
78117;BME280;69042;59.120;37.904;2024-03-08T01:06:25;99986.16;;;0.03;72.55
78117;BME280;69042;59.120;37.904;2024-03-08T01:08:52;99974.16;;;0.08;72.15
78117;BME280;69042;59.120;37.904;2024-03-08T01:11:19;99972.44;;;0.12;72.04
78117;BME280;69042;59.120;37.904;2024-03-08T01:13:45;99961.31;;;0.14;72.43
78117;BME280;69042;59.120;37.904;2024-03-08T01:16:13;99962.16;;;0.21;72.15
78117;BME280;69042;59.120;37.904;2024-03-08T01:18:39;99966.44;;;0.13;72.14
78117;BME280;69042;59.120;37.904;2024-03-08T01:21:05;99967.28;;;0.19;71.87
78117;BME280;69042;59.120;37.904;2024-03-08T01:23:32;99959.56;;;0.24;71.87
78117;BME280;69042;59.120;37.904;2024-03-08T01:25:58;99956.16;;;0.20;72.13
78117;BME280;69042;59.120;37.904;2024-03-08T01:28:25;99961.25;;;0.31;72.15
78117;BME280;69042;59.120;37.904;2024-03-08T01:30:52;99962.13;;;0.26;71.81
78117;BME280;69042;59.120;37.904;2024-03-08T01:33:24;99979.22;;;0.31;71.59
78117;BME280;69042;59.120;37.904;2024-03-08T01:35:54;99964.69;;;0.32;72.32
78117;BME280;69042;59.120;37.904;2024-03-08T01:38:20;99961.25;;;0.34;72.28
78117;BME280;69042;59.120;37.904;2024-03-08T01:40:50;99962.13;;;0.29;71.88
78117;BME280;69042;59.120;37.904;2024-03-08T01:43:21;99953.53;;;0.31;72.29
78117;BME280;69042;59.120;37.904;2024-03-08T01:45:48;99964.72;;;0.19;72.90
78117;BME280;69042;59.120;37.904;2024-03-08T01:48:16;99960.41;;;0.25;71.97
78117;BME280;69042;59.120;37.904;2024-03-08T01:50:44;99949.25;;;0.29;71.85
78117;BME280;69042;59.120;37.904;2024-03-08T01:53:11;99966.44;;;0.19;72.50
78117;BME280;69042;59.120;37.904;2024-03-08T01:55:41;99964.69;;;0.26;72.25
78117;BME280;69042;59.120;37.904;2024-03-08T01:58:09;99952.75;;;0.06;73.99
78117;BME280;69042;59.120;37.904;2024-03-08T02:00:40;99953.63;;;-0.03;73.56
78117;BME280;69042;59.120;37.904;2024-03-08T02:03:06;99953.63;;;0.01;72.81
78117;BME280;69042;59.120;37.904;2024-03-08T02:05:33;99967.34;;;-0.07;72.58
78117;BME280;69042;59.120;37.904;2024-03-08T02:08:00;99963.91;;;-0.07;73.18
78117;BME280;69042;59.120;37.904;2024-03-08T02:10:26;99968.19;;;-0.28;75.19
78117;BME280;69042;59.120;37.904;2024-03-08T02:12:52;99958.78;;;-0.26;74.11
78117;BME280;69042;59.120;37.904;2024-03-08T02:15:19;99956.22;;;-0.21;73.33
78117;BME280;69042;59.120;37.904;2024-03-08T02:17:45;99960.50;;;-0.22;73.48
78117;BME280;69042;59.120;37.904;2024-03-08T02:20:11;99971.63;;;-0.29;74.69
78117;BME280;69042;59.120;37.904;2024-03-08T02:22:39;99968.19;;;-0.34;74.92
78117;BME280;69042;59.120;37.904;2024-03-08T02:25:05;99951.94;;;-0.27;74.38
78117;BME280;69042;59.120;37.904;2024-03-08T02:27:32;99966.47;;;-0.16;73.95
78117;BME280;69042;59.120;37.904;2024-03-08T02:29:58;99964.75;;;-0.21;75.13
78117;BME280;69042;59.120;37.904;2024-03-08T02:32:25;100016.09;;;-0.11;74.02
78117;BME280;69042;59.120;37.904;2024-03-08T02:34:56;99962.19;;;-0.13;77.69
78117;BME280;69042;59.120;37.904;2024-03-08T02:37:25;99969.88;;;0.01;76.79
78117;BME280;69042;59.120;37.904;2024-03-08T02:39:52;99966.47;;;0.01;77.50
78117;BME280;69042;59.120;37.904;2024-03-08T02:42:18;99969.00;;;0.02;76.93
78117;BME280;69042;59.120;37.904;2024-03-08T02:44:44;99964.75;;;0.01;76.47
78117;BME280;69042;59.120;37.904;2024-03-08T02:47:10;99968.16;;;0.06;76.39
78117;BME280;69042;59.120;37.904;2024-03-08T02:49:37;99971.59;;;-0.03;76.91
78117;BME280;69042;59.120;37.904;2024-03-08T02:52:04;99963.03;;;-0.02;75.28
78117;BME280;69042;59.120;37.904;2024-03-08T02:54:30;99963.03;;;0.03;75.16
78117;BME280;69042;59.120;37.904;2024-03-08T02:56:57;99961.31;;;0.04;74.78
78117;BME280;69042;59.120;37.904;2024-03-08T02:59:23;99964.72;;;0.09;74.20
78117;BME280;69042;59.120;37.904;2024-03-08T03:01:49;99968.19;;;0.00;75.41
78117;BME280;69042;59.120;37.904;2024-03-08T03:04:16;99958.75;;;-0.01;75.19
78117;BME280;69042;59.120;37.904;2024-03-08T03:06:43;99950.16;;;0.11;75.05
78117;BME280;69042;59.120;37.904;2024-03-08T03:09:09;99963.03;;;0.08;74.73
78117;BME280;69042;59.120;37.904;2024-03-08T03:11:36;99951.00;;;0.24;74.25
78117;BME280;69042;59.120;37.904;2024-03-08T03:14:03;99941.56;;;0.32;73.45
78117;BME280;69042;59.120;37.904;2024-03-08T03:16:30;99945.81;;;0.36;73.22
78117;BME280;69042;59.120;37.904;2024-03-08T03:18:56;99940.69;;;0.33;73.51
78117;BME280;69042;59.120;37.904;2024-03-08T03:21:27;99944.09;;;0.41;73.57
78117;BME280;69042;59.120;37.904;2024-03-08T03:23:54;99941.53;;;0.35;73.97
78117;BME280;69042;59.120;37.904;2024-03-08T03:26:20;99935.50;;;0.47;72.96
78117;BME280;69042;59.120;37.904;2024-03-08T03:28:47;99937.22;;;0.48;73.11
78117;BME280;69042;59.120;37.904;2024-03-08T03:31:14;99934.66;;;0.46;73.46
78117;BME280;69042;59.120;37.904;2024-03-08T03:33:40;99935.53;;;0.45;73.29
78117;BME280;69042;59.120;37.904;2024-03-08T03:36:06;99944.91;;;0.52;73.41
78117;BME280;69042;59.120;37.904;2024-03-08T03:38:35;99926.91;;;0.52;73.82
78117;BME280;69042;59.120;37.904;2024-03-08T03:41:02;99930.28;;;0.60;73.84
78117;BME280;69042;59.120;37.904;2024-03-08T03:43:32;99929.44;;;0.60;73.35
78117;BME280;69042;59.120;37.904;2024-03-08T03:45:58;99925.97;;;0.67;73.25
78117;BME280;69042;59.120;37.904;2024-03-08T03:48:24;99924.25;;;0.72;73.13
78117;BME280;69042;59.120;37.904;2024-03-08T03:50:50;99918.25;;;0.73;73.13
78117;BME280;69042;59.120;37.904;2024-03-08T03:53:16;99923.41;;;0.70;73.16
78117;BME280;69042;59.120;37.904;2024-03-08T03:55:43;99924.22;;;0.74;73.06
78117;BME280;69042;59.120;37.904;2024-03-08T03:58:09;99915.63;;;0.84;72.68
78117;BME280;69042;59.120;37.904;2024-03-08T04:00:38;99920.72;;;0.87;72.64
78117;BME280;69042;59.120;37.904;2024-03-08T04:03:04;99931.09;;;0.75;72.80
78117;BME280;69042;59.120;37.904;2024-03-08T04:05:31;99936.28;;;0.66;72.88
78117;BME280;69042;59.120;37.904;2024-03-08T04:07:57;99931.09;;;0.73;73.69
78117;BME280;69042;59.120;37.904;2024-03-08T04:10:24;99938.81;;;0.73;73.01
78117;BME280;69042;59.120;37.904;2024-03-08T04:12:50;99931.13;;;0.67;73.72
78117;BME280;69042;59.120;37.904;2024-03-08T04:15:16;99933.69;;;0.70;73.63
78117;BME280;69042;59.120;37.904;2024-03-08T04:17:42;99929.38;;;0.75;73.09
78117;BME280;69042;59.120;37.904;2024-03-08T04:20:09;99919.09;;;0.75;73.83
78117;BME280;69042;59.120;37.904;2024-03-08T04:22:36;99931.91;;;0.85;74.01
78117;BME280;69042;59.120;37.904;2024-03-08T04:25:03;99931.03;;;0.86;73.58
78117;BME280;69042;59.120;37.904;2024-03-08T04:27:30;99917.28;;;0.91;73.53
78117;BME280;69042;59.120;37.904;2024-03-08T04:29:58;99922.41;;;0.97;73.32
78117;BME280;69042;59.120;37.904;2024-03-08T04:32:25;99925.88;;;0.86;73.50
78117;BME280;69042;59.120;37.904;2024-03-08T04:34:51;99918.97;;;0.92;72.92
78117;BME280;69042;59.120;37.904;2024-03-08T04:37:17;99927.63;;;0.82;73.44
78117;BME280;69042;59.120;37.904;2024-03-08T04:39:48;99916.41;;;0.94;72.84
78117;BME280;69042;59.120;37.904;2024-03-08T04:42:14;99918.13;;;0.93;73.88
78117;BME280;69042;59.120;37.904;2024-03-08T04:44:41;99920.69;;;0.99;72.93
78117;BME280;69042;59.120;37.904;2024-03-08T04:47:08;99913.03;;;0.90;73.61
78117;BME280;69042;59.120;37.904;2024-03-08T04:49:34;99913.00;;;0.95;73.39
78117;BME280;69042;59.120;37.904;2024-03-08T04:52:04;99919.84;;;0.94;73.26
78117;BME280;69042;59.120;37.904;2024-03-08T04:54:30;99913.81;;;1.00;73.31
78117;BME280;69042;59.120;37.904;2024-03-08T04:56:57;99903.50;;;1.03;73.27
78117;BME280;69042;59.120;37.904;2024-03-08T04:59:23;99933.50;;;1.01;74.19
78117;BME280;69042;59.120;37.904;2024-03-08T05:01:49;99908.56;;;1.14;73.28
78117;BME280;69042;59.120;37.904;2024-03-08T05:04:17;99918.00;;;1.13;73.13
78117;BME280;69042;59.120;37.904;2024-03-08T05:06:43;99912.91;;;1.09;74.24
78117;BME280;69042;59.120;37.904;2024-03-08T05:09:09;99906.88;;;1.13;73.60
78117;BME280;69042;59.120;37.904;2024-03-08T05:11:42;99917.13;;;1.14;73.99
78117;BME280;69042;59.120;37.904;2024-03-08T05:14:13;99921.47;;;1.09;75.47
78117;BME280;69042;59.120;37.904;2024-03-08T05:16:46;99924.16;;;0.89;75.57
78117;BME280;69042;59.120;37.904;2024-03-08T05:19:16;99928.41;;;0.99;75.40
78117;BME280;69042;59.120;37.904;2024-03-08T05:21:46;99926.66;;;1.01;74.19
78117;BME280;69042;59.120;37.904;2024-03-08T05:24:14;99912.16;;;0.87;75.40
78117;BME280;69042;59.120;37.904;2024-03-08T05:26:41;99925.03;;;0.88;76.04
78117;BME280;69042;59.120;37.904;2024-03-08T05:29:08;99907.03;;;0.85;76.30
78117;BME280;69042;59.120;37.904;2024-03-08T05:31:51;99919.88;;;0.87;75.79
78117;BME280;69042;59.120;37.904;2024-03-08T05:34:18;99913.84;;;0.95;75.69
78117;BME280;69042;59.120;37.904;2024-03-08T05:36:48;99915.56;;;0.93;76.12
78117;BME280;69042;59.120;37.904;2024-03-08T05:39:17;99909.59;;;0.85;75.73
78117;BME280;69042;59.120;37.904;2024-03-08T05:41:44;99911.34;;;0.81;75.67
78117;BME280;69042;59.120;37.904;2024-03-08T05:44:10;99912.97;;;0.96;75.47
78117;BME280;69042;59.120;37.904;2024-03-08T05:46:37;99908.69;;;0.92;75.36
78117;BME280;69042;59.120;37.904;2024-03-08T05:49:04;99905.22;;;1.04;74.85
78117;BME280;69042;59.120;37.904;2024-03-08T05:51:32;99899.09;;;1.19;75.21
78117;BME280;69042;59.120;37.904;2024-03-08T05:54:00;99904.19;;;1.25;74.61
78117;BME280;69042;59.120;37.904;2024-03-08T05:56:29;99892.25;;;1.16;74.22
78117;BME280;69042;59.120;37.904;2024-03-08T05:58:56;99894.81;;;1.15;74.67
78117;BME280;69042;59.120;37.904;2024-03-08T06:01:28;99883.56;;;1.30;74.64
78117;BME280;69042;59.120;37.904;2024-03-08T06:03:55;99888.69;;;1.36;74.14
78117;BME280;69042;59.120;37.904;2024-03-08T06:06:26;99892.94;;;1.40;73.54
78117;BME280;69042;59.120;37.904;2024-03-08T06:08:52;99895.38;;;1.54;73.29
78117;BME280;69042;59.120;37.904;2024-03-08T06:11:20;99882.44;;;1.63;73.40
78117;BME280;69042;59.120;37.904;2024-03-08T06:13:46;99884.03;;;1.73;73.40
78117;BME280;69042;59.120;37.904;2024-03-08T06:16:12;99877.88;;;1.86;72.70
78117;BME280;69042;59.120;37.904;2024-03-08T06:18:39;99892.44;;;1.91;73.01
78117;BME280;69042;59.120;37.904;2024-03-08T06:21:05;99895.97;;;1.83;73.22
78117;BME280;69042;59.120;37.904;2024-03-08T06:23:32;99883.13;;;1.77;72.89
78117;BME280;69042;59.120;37.904;2024-03-08T06:25:59;99882.41;;;1.64;74.07
78117;BME280;69042;59.120;37.904;2024-03-08T06:28:25;99880.66;;;1.66;74.31
78117;BME280;69042;59.120;37.904;2024-03-08T06:30:51;99914.03;;;1.77;73.28
78117;BME280;69042;59.120;37.904;2024-03-08T06:33:18;99876.97;;;1.94;72.75
78117;BME280;69042;59.120;37.904;2024-03-08T06:35:45;99894.03;;;2.05;72.75
78117;BME280;69042;59.120;37.904;2024-03-08T06:38:11;99878.50;;;2.10;72.90
78117;BME280;69042;59.120;37.904;2024-03-08T06:40:37;99867.25;;;2.19;72.09
78117;BME280;69042;59.120;37.904;2024-03-08T06:43:04;99871.56;;;2.14;71.84
78117;BME280;69042;59.120;37.904;2024-03-08T06:45:32;99870.63;;;2.22;71.76
78117;BME280;69042;59.120;37.904;2024-03-08T06:47:58;99885.31;;;2.16;71.27
78117;BME280;69042;59.120;37.904;2024-03-08T06:50:24;99870.59;;;2.24;70.36
78117;BME280;69042;59.120;37.904;2024-03-08T06:52:50;99870.47;;;2.35;71.03
78117;BME280;69042;59.120;37.904;2024-03-08T06:55:22;99911.69;;;2.39;72.20
78117;BME280;69042;59.120;37.904;2024-03-08T06:57:48;99866.13;;;2.38;71.47
78117;BME280;69042;59.120;37.904;2024-03-08T07:00:15;99863.50;;;2.43;71.05
78117;BME280;69042;59.120;37.904;2024-03-08T07:02:44;99867.63;;;2.56;70.03
78117;BME280;69042;59.120;37.904;2024-03-08T07:05:19;99852.84;;;2.69;70.42
78117;BME280;69042;59.120;37.904;2024-03-08T07:07:46;99846.69;;;2.78;70.41
78117;BME280;69042;59.120;37.904;2024-03-08T07:10:15;99868.94;;;2.83;69.41
78117;BME280;69042;59.120;37.904;2024-03-08T07:12:41;99853.59;;;2.77;69.71
78117;BME280;69042;59.120;37.904;2024-03-08T07:15:08;99868.19;;;2.78;70.64
78117;BME280;69042;59.120;37.904;2024-03-08T07:17:39;99857.91;;;2.74;70.59
78117;BME280;69042;59.120;37.904;2024-03-08T07:20:06;99857.91;;;2.74;70.36
78117;BME280;69042;59.120;37.904;2024-03-08T07:22:38;99851.91;;;2.73;70.96
78117;BME280;69042;59.120;37.904;2024-03-08T07:25:05;99859.66;;;2.73;70.75
78117;BME280;69042;59.120;37.904;2024-03-08T07:27:51;99869.34;;;2.57;71.74
78117;BME280;69042;59.120;37.904;2024-03-08T07:30:22;99871.16;;;2.47;71.74
78117;BME280;69042;59.120;37.904;2024-03-08T07:33:07;99873.19;;;2.25;72.63
78117;BME280;69042;59.120;37.904;2024-03-08T07:35:33;99866.25;;;2.31;72.37
78117;BME280;69042;59.120;37.904;2024-03-08T07:38:04;99865.34;;;2.32;72.09
78117;BME280;69042;59.120;37.904;2024-03-08T07:40:34;99859.22;;;2.42;72.28
78117;BME280;69042;59.120;37.904;2024-03-08T07:43:01;99860.06;;;2.44;72.76
78117;BME280;69042;59.120;37.904;2024-03-08T07:45:28;99859.84;;;2.59;71.97
78117;BME280;69042;59.120;37.904;2024-03-08T07:47:54;99864.81;;;2.71;71.86
78117;BME280;69042;59.120;37.904;2024-03-08T07:50:22;99875.16;;;2.71;71.22
78117;BME280;69042;59.120;37.904;2024-03-08T07:52:49;99863.13;;;2.70;71.17
78117;BME280;69042;59.120;37.904;2024-03-08T07:55:17;99878.56;;;2.72;71.70
78117;BME280;69042;59.120;37.904;2024-03-08T07:57:44;99848.63;;;2.62;70.44
78117;BME280;69042;59.120;37.904;2024-03-08T08:00:10;99868.31;;;2.67;70.70
78117;BME280;69042;59.120;37.904;2024-03-08T08:02:39;99869.22;;;2.66;70.64
78117;BME280;69042;59.120;37.904;2024-03-08T08:05:05;99861.50;;;2.63;70.62
78117;BME280;69042;59.120;37.904;2024-03-08T08:07:31;99852.19;;;2.52;71.31
78117;BME280;69042;59.120;37.904;2024-03-08T08:09:57;99861.56;;;2.59;70.99
78117;BME280;69042;59.120;37.904;2024-03-08T08:12:24;99869.28;;;2.59;71.06
78117;BME280;69042;59.120;37.904;2024-03-08T08:14:50;99865.03;;;2.56;71.79
78117;BME280;69042;59.120;37.904;2024-03-08T08:17:16;99861.47;;;2.68;72.16
78117;BME280;69042;59.120;37.904;2024-03-08T08:19:43;99873.34;;;2.78;71.74
78117;BME280;69042;59.120;37.904;2024-03-08T08:22:10;99876.69;;;2.86;70.43
78117;BME280;69042;59.120;37.904;2024-03-08T08:24:37;99870.47;;;3.00;70.32
78117;BME280;69042;59.120;37.904;2024-03-08T08:27:04;99868.63;;;3.06;68.11
78117;BME280;69042;59.120;37.904;2024-03-08T08:29:30;99859.84;;;3.17;68.50
78117;BME280;69042;59.120;37.904;2024-03-08T08:31:59;99864.13;;;3.19;67.53
78117;BME280;69042;59.120;37.904;2024-03-08T08:34:25;99872.59;;;3.29;66.69
78117;BME280;69042;59.120;37.904;2024-03-08T08:36:53;99864.53;;;3.47;68.36
78117;BME280;69042;59.120;37.904;2024-03-08T08:39:19;99867.63;;;3.66;65.41
78117;BME280;69042;59.120;37.904;2024-03-08T08:41:45;99870.09;;;3.74;65.30
78117;BME280;69042;59.120;37.904;2024-03-08T08:44:11;99870.78;;;3.82;66.17
78117;BME280;69042;59.120;37.904;2024-03-08T08:46:38;99857.78;;;3.87;64.81
78117;BME280;69042;59.120;37.904;2024-03-08T08:49:05;99857.50;;;4.01;66.02
78117;BME280;69042;59.120;37.904;2024-03-08T08:51:32;99870.00;;;4.24;64.41
78117;BME280;69042;59.120;37.904;2024-03-08T08:53:59;99869.66;;;4.41;64.23
78117;BME280;69042;59.120;37.904;2024-03-08T08:56:26;99856.66;;;4.44;61.04
78117;BME280;69042;59.120;37.904;2024-03-08T08:58:52;99860.91;;;4.46;63.34
78117;BME280;69042;59.120;37.904;2024-03-08T09:01:21;99871.94;;;4.54;61.25
78117;BME280;69042;59.120;37.904;2024-03-08T09:03:47;99874.69;;;4.47;60.86
78117;BME280;69042;59.120;37.904;2024-03-08T09:06:13;99871.22;;;4.48;61.71
78117;BME280;69042;59.120;37.904;2024-03-08T09:08:39;99875.53;;;4.47;60.18
78117;BME280;69042;59.120;37.904;2024-03-08T09:11:06;99878.09;;;4.50;59.93
78117;BME280;69042;59.120;37.904;2024-03-08T09:13:32;99871.13;;;4.52;60.73
78117;BME280;69042;59.120;37.904;2024-03-08T09:16:00;99877.59;;;4.73;59.39
78117;BME280;69042;59.120;37.904;2024-03-08T09:18:26;99884.41;;;4.77;59.72
78117;BME280;69042;59.120;37.904;2024-03-08T09:20:52;99875.41;;;4.55;57.94
78117;BME280;69042;59.120;37.904;2024-03-08T09:23:20;99879.13;;;4.42;58.33
78117;BME280;69042;59.120;37.904;2024-03-08T09:25:46;99887.75;;;4.41;57.68
78117;BME280;69042;59.120;37.904;2024-03-08T09:28:12;99895.88;;;4.22;56.54
78117;BME280;69042;59.120;37.904;2024-03-08T09:30:39;99897.66;;;4.18;57.99
78117;BME280;69042;59.120;37.904;2024-03-08T09:33:06;99891.06;;;4.04;56.24
78117;BME280;69042;59.120;37.904;2024-03-08T09:35:33;99882.38;;;4.08;57.53
78117;BME280;69042;59.120;37.904;2024-03-08T09:37:59;99898.22;;;3.89;55.16
78117;BME280;69042;59.120;37.904;2024-03-08T09:40:25;99894.19;;;3.76;56.21
78117;BME280;69042;59.120;37.904;2024-03-08T09:42:53;99895.97;;;3.71;55.99
78117;BME280;69042;59.120;37.904;2024-03-08T09:45:21;99890.59;;;3.83;57.71
78117;BME280;69042;59.120;37.904;2024-03-08T09:47:50;99885.66;;;4.16;56.42
78117;BME280;69042;59.120;37.904;2024-03-08T09:50:17;99888.06;;;4.25;55.88
78117;BME280;69042;59.120;37.904;2024-03-08T09:52:46;99886.25;;;4.30;56.19
78117;BME280;69042;59.120;37.904;2024-03-08T09:55:13;99889.38;;;4.46;56.06
78117;BME280;69042;59.120;37.904;2024-03-08T09:57:40;99894.25;;;4.60;55.13
78117;BME280;69042;59.120;37.904;2024-03-08T10:00:07;99875.19;;;4.64;55.12
78117;BME280;69042;59.120;37.904;2024-03-08T10:02:50;99885.47;;;4.67;55.21
78117;BME280;69042;59.120;37.904;2024-03-08T10:05:19;99884.09;;;4.51;55.53
78117;BME280;69042;59.120;37.904;2024-03-08T10:07:48;99887.81;;;4.37;56.17
78117;BME280;69042;59.120;37.904;2024-03-08T10:10:14;99878.94;;;4.51;56.53
78117;BME280;69042;59.120;37.904;2024-03-08T10:12:40;99879.25;;;4.76;55.27
78117;BME280;69042;59.120;37.904;2024-03-08T10:15:07;99886.09;;;4.78;55.05
78117;BME280;69042;59.120;37.904;2024-03-08T10:17:37;99881.03;;;4.74;54.96
78117;BME280;69042;59.120;37.904;2024-03-08T10:20:17;99881.16;;;4.68;54.01
78117;BME280;69042;59.120;37.904;2024-03-08T10:22:44;99883.06;;;4.59;53.79
78117;BME280;69042;59.120;37.904;2024-03-08T10:25:11;99879.34;;;4.73;55.60
78117;BME280;69042;59.120;37.904;2024-03-08T10:27:41;99893.91;;;5.14;54.85
78117;BME280;69042;59.120;37.904;2024-03-08T10:30:13;99902.19;;;5.29;53.83
78117;BME280;69042;59.120;37.904;2024-03-08T10:32:41;99923.69;;;4.95;57.45
78117;BME280;69042;59.120;37.904;2024-03-08T10:35:10;99939.09;;;4.15;60.21
78117;BME280;69042;59.120;37.904;2024-03-08T10:37:49;99951.50;;;3.45;62.56
78117;BME280;69042;59.120;37.904;2024-03-08T10:40:19;99951.38;;;2.96;63.07
78117;BME280;69042;59.120;37.904;2024-03-08T10:43:15;99956.06;;;2.64;66.42
78117;BME280;69042;59.120;37.904;2024-03-08T10:45:46;99943.25;;;2.58;65.22
78117;BME280;69042;59.120;37.904;2024-03-08T10:48:40;99939.16;;;2.42;67.24
78117;BME280;69042;59.120;37.904;2024-03-08T10:51:09;99939.38;;;2.23;66.58
78117;BME280;69042;59.120;37.904;2024-03-08T10:53:37;99938.53;;;2.18;68.23
78117;BME280;69042;59.120;37.904;2024-03-08T10:56:07;99939.47;;;2.14;67.97
78117;BME280;69042;59.120;37.904;2024-03-08T10:58:36;99949.75;;;2.16;67.83
78117;BME280;69042;59.120;37.904;2024-03-08T11:01:03;99941.19;;;2.12;68.92
78117;BME280;69042;59.120;37.904;2024-03-08T11:06:17;99941.13;;;2.18;64.30
78117;BME280;69042;59.120;37.904;2024-03-08T11:08:46;99938.59;;;2.14;60.95
78117;BME280;69042;59.120;37.904;2024-03-08T11:11:26;99935.84;;;2.31;60.58
78117;BME280;69042;59.120;37.904;2024-03-08T11:13:53;99938.03;;;2.63;58.92
78117;BME280;69042;59.120;37.904;2024-03-08T11:18:54;99926.53;;;3.44;58.33
78117;BME280;69042;59.120;37.904;2024-03-08T11:21:20;99920.59;;;3.92;57.99
78117;BME280;69042;59.120;37.904;2024-03-08T11:24:07;99928.38;;;4.37;57.02
78117;BME280;69042;59.120;37.904;2024-03-08T11:26:34;99925.00;;;4.75;58.79
78117;BME280;69042;59.120;37.904;2024-03-08T11:32:15;99925.59;;;5.61;54.85
78117;BME280;69042;59.120;37.904;2024-03-08T11:34:46;99922.56;;;5.78;52.76
78117;BME280;69042;59.120;37.904;2024-03-08T11:37:17;99929.94;;;5.61;53.18
78117;BME280;69042;59.120;37.904;2024-03-08T11:39:48;99929.19;;;5.56;53.54
78117;BME280;69042;59.120;37.904;2024-03-08T11:42:15;99941.41;;;5.51;49.47
78117;BME280;69042;59.120;37.904;2024-03-08T11:44:46;99931.84;;;5.54;52.45
78117;BME280;69042;59.120;37.904;2024-03-08T11:47:14;99942.69;;;5.69;49.52
78117;BME280;69042;59.120;37.904;2024-03-08T11:49:41;99935.50;;;5.80;50.38
78117;BME280;69042;59.120;37.904;2024-03-08T11:52:11;99934.84;;;5.72;49.99
78117;BME280;69042;59.120;37.904;2024-03-08T11:55:00;99942.03;;;5.60;50.51
78117;BME280;69042;59.120;37.904;2024-03-08T11:57:26;99958.84;;;5.44;48.03
78117;BME280;69042;59.120;37.904;2024-03-08T11:59:55;99959.34;;;5.22;49.55
78117;BME280;69042;59.120;37.904;2024-03-08T12:02:22;99958.03;;;5.03;50.27
78117;BME280;69042;59.120;37.904;2024-03-08T12:04:59;99966.13;;;4.89;50.50
78117;BME280;69042;59.120;37.904;2024-03-08T12:07:26;99963.66;;;4.83;51.16
78117;BME280;69042;59.120;37.904;2024-03-08T12:10:16;99968.13;;;4.75;51.32
78117;BME280;69042;59.120;37.904;2024-03-08T12:12:47;99963.28;;;4.59;51.81
78117;BME280;69042;59.120;37.904;2024-03-08T12:15:16;99978.25;;;4.44;52.73
78117;BME280;69042;59.120;37.904;2024-03-08T12:17:45;99959.50;;;4.32;51.85
78117;BME280;69042;59.120;37.904;2024-03-08T12:20:19;99975.06;;;4.28;52.90
78117;BME280;69042;59.120;37.904;2024-03-08T12:22:48;99976.56;;;4.41;53.89
78117;BME280;69042;59.120;37.904;2024-03-08T12:25:15;99974.59;;;4.52;53.87
78117;BME280;69042;59.120;37.904;2024-03-08T12:27:43;99971.25;;;4.47;53.99
78117;BME280;69042;59.120;37.904;2024-03-08T12:30:20;99972.44;;;4.32;52.82
78117;BME280;69042;59.120;37.904;2024-03-08T12:32:57;99963.66;;;4.40;53.81
78117;BME280;69042;59.120;37.904;2024-03-08T12:35:25;99965.97;;;4.55;53.61
78117;BME280;69042;59.120;37.904;2024-03-08T12:37:59;99973.19;;;4.79;54.52
78117;BME280;69042;59.120;37.904;2024-03-08T12:42:54;99972.88;;;5.71;54.31
78117;BME280;69042;59.120;37.904;2024-03-08T12:45:21;99986.53;;;6.14;53.51
78117;BME280;69042;59.120;37.904;2024-03-08T12:47:58;99991.44;;;6.26;51.35
78117;BME280;69042;59.120;37.904;2024-03-08T12:50:25;100001.34;;;5.74;51.41
78117;BME280;69042;59.120;37.904;2024-03-08T12:52:51;100002.91;;;5.04;50.13
78117;BME280;69042;59.120;37.904;2024-03-08T12:55:21;99992.78;;;4.49;50.65
78117;BME280;69042;59.120;37.904;2024-03-08T12:57:48;100009.81;;;4.14;50.38
78117;BME280;69042;59.120;37.904;2024-03-08T13:00:15;100012.09;;;3.80;50.83
78117;BME280;69042;59.120;37.904;2024-03-08T13:02:49;100008.97;;;3.61;51.45
78117;BME280;69042;59.120;37.904;2024-03-08T13:05:17;100030.63;;;3.52;50.89
78117;BME280;69042;59.120;37.904;2024-03-08T13:07:44;100035.84;;;3.46;52.06
78117;BME280;69042;59.120;37.904;2024-03-08T13:10:16;100035.72;;;3.55;53.53
78117;BME280;69042;59.120;37.904;2024-03-08T13:12:42;100038.06;;;3.74;53.83
78117;BME280;69042;59.120;37.904;2024-03-08T13:15:09;100043.59;;;3.46;53.60